Time;durP1;ratioP1;P1;durP2;ratioP2;P2;SDS_P1;SDS_P2;PMS_P1;PMS_P2;Temp;Humidity;BMP_temperature;BMP_pressure;BME280_temperature;BME280_humidity;BME280_pressure;Samples;Min_cycle;Max_cycle;Signal;HPM_P1;HPM_P2
2022/01/12 00:01:33;;;;;;;8.40;8.20;;;1.20;99.90;;;;;;5090899;28;20316;-80
2022/01/12 00:04:12;;;;;;;8.50;8.30;;;1.10;99.90;;;;;;5085559;28;20233;-79
2022/01/12 00:06:41;;;;;;;8.50;8.30;;;1.00;99.90;;;;;;5079034;28;20229;-79
2022/01/12 00:09:08;;;;;;;8.40;8.20;;;1.00;99.90;;;;;;5125307;22;20251;-81
2022/01/12 00:11:37;;;;;;;8.30;8.10;;;1.00;99.90;;;;;;5121181;27;20240;-80
2022/01/12 00:14:06;;;;;;;8.70;8.50;;;1.10;99.90;;;;;;5121350;27;20236;-81
2022/01/12 00:16:34;;;;;;;8.60;8.40;;;1.00;99.90;;;;;;5117358;27;20255;-80
2022/01/12 00:19:03;;;;;;;8.40;8.20;;;0.90;99.90;;;;;;5108317;27;20206;-81
2022/01/12 00:21:31;;;;;;;8.33;8.13;;;0.90;99.90;;;;;;5099353;28;20206;-80
2022/01/12 00:23:59;;;;;;;8.50;8.30;;;0.80;99.90;;;;;;5104915;28;20209;-80
2022/01/12 00:26:40;;;;;;;8.70;8.50;;;0.90;99.90;;;;;;5110123;27;20260;-82
2022/01/12 00:34:52;;;;;;;8.60;8.40;;;0.70;99.90;;;;;;5113243;28;20208;-81
2022/01/12 00:37:20;;;;;;;8.43;8.23;;;0.80;99.90;;;;;;5120164;27;20218;-81
2022/01/12 00:39:48;;;;;;;8.50;8.30;;;0.80;99.90;;;;;;5117300;27;20237;-81
2022/01/12 00:42:16;;;;;;;8.13;7.93;;;0.90;99.90;;;;;;5108647;28;20237;-81
2022/01/12 00:44:46;;;;;;;8.23;8.03;;;1.00;99.90;;;;;;5105253;28;20256;-81
2022/01/12 00:47:14;;;;;;;8.37;8.17;;;1.00;99.90;;;;;;5093586;28;20241;-82
2022/01/12 00:49:42;;;;;;;8.10;7.90;;;1.00;99.90;;;;;;5096821;28;20218;-81
2022/01/12 00:52:11;;;;;;;8.30;8.10;;;0.90;99.90;;;;;;5090756;28;20226;-81
2022/01/12 00:54:39;;;;;;;8.10;7.90;;;0.80;99.90;;;;;;5094669;28;20218;-81
2022/01/12 00:57:07;;;;;;;8.20;8.00;;;0.80;99.90;;;;;;5090434;28;20284;-81
2022/01/12 00:59:35;;;;;;;8.07;7.87;;;0.80;99.90;;;;;;5088141;28;20237;-80
2022/01/12 01:02:03;;;;;;;8.30;8.10;;;0.70;99.90;;;;;;5085253;28;20238;-81
2022/01/12 01:04:31;;;;;;;8.50;8.30;;;0.60;99.90;;;;;;5086808;28;20230;-82
2022/01/12 01:06:58;;;;;;;8.30;8.10;;;0.70;99.90;;;;;;5084918;28;20255;-81
2022/01/12 01:09:27;;;;;;;8.40;8.20;;;0.80;99.90;;;;;;5084272;28;20230;-81
2022/01/12 01:11:55;;;;;;;8.30;8.10;;;0.70;99.90;;;;;;5100588;28;20233;-81
2022/01/12 01:14:36;;;;;;;8.33;8.13;;;0.60;99.90;;;;;;5108922;28;20265;-81
2022/01/12 01:25:23;;;;;;;8.23;8.03;;;0.40;99.90;;;;;;5096386;28;20221;-81
2022/01/12 01:25:31;;;;;;;8.50;8.30;;;0.60;99.90;;;;;;5086093;28;20214;-81
2022/01/12 01:27:59;;;;;;;8.60;8.40;;;0.70;99.90;;;;;;5085624;28;20226;-82
2022/01/12 01:30:27;;;;;;;8.40;8.20;;;0.80;99.90;;;;;;5087788;28;20222;-82
2022/01/12 01:32:57;;;;;;;8.27;8.07;;;0.80;99.90;;;;;;5095768;28;20218;-82
2022/01/12 01:35:27;;;;;;;8.10;7.90;;;0.90;99.90;;;;;;5095784;28;20229;-81
2022/01/12 01:37:55;;;;;;;8.23;8.03;;;0.90;99.90;;;;;;5087669;28;20328;-81
2022/01/12 01:40:22;;;;;;;8.77;8.57;;;1.00;99.90;;;;;;5086292;28;20276;-81
2022/01/12 01:43:08;;;;;;;8.40;8.20;;;0.80;99.90;;;;;;5084864;28;20226;-80
2022/01/12 01:53:56;;;;;;;8.53;8.33;;;0.60;99.90;;;;;;5085202;28;20230;-81
2022/01/12 01:56:24;;;;;;;8.30;8.10;;;0.60;99.90;;;;;;5084636;28;20230;-81
2022/01/12 01:58:53;;;;;;;8.20;8.00;;;0.60;99.90;;;;;;5083755;28;20392;-81
2022/01/12 02:01:22;;;;;;;8.20;8.00;;;0.70;99.90;;;;;;5083991;28;20241;-82
2022/01/12 02:03:51;;;;;;;8.10;7.90;;;0.70;99.90;;;;;;5083420;28;20230;-81
2022/01/12 02:06:18;;;;;;;8.23;8.03;;;0.50;99.90;;;;;;5083995;28;20385;-81
2022/01/12 02:08:46;;;;;;;7.97;7.77;;;0.40;99.90;;;;;;5082762;28;20273;-82
2022/01/12 02:11:14;;;;;;;8.27;8.07;;;0.30;99.90;;;;;;5083552;28;20240;-81
2022/01/12 02:13:42;;;;;;;8.30;8.10;;;0.40;99.90;;;;;;5084316;28;20290;-82
2022/01/12 02:16:11;;;;;;;8.60;8.40;;;0.40;99.90;;;;;;5084193;28;20284;-81
2022/01/12 02:19:06;;;;;;;8.47;8.27;;;0.40;99.90;;;;;;5083091;28;20226;-81
2022/01/12 02:35:36;;;;;;;8.30;8.10;;;0.40;99.90;;;;;;5090503;28;20246;-81
2022/01/12 02:40:54;;;;;;;8.70;8.50;;;0.30;99.90;;;;;;5100469;28;20226;-81
2022/01/12 02:43:40;;;;;;;8.57;8.37;;;0.30;99.90;;;;;;5103833;28;20221;-81
2022/01/12 02:53:38;;;;;;;8.63;8.43;;;0.20;99.90;;;;;;5104393;28;20225;-81
2022/01/12 02:54:25;;;;;;;8.57;8.37;;;0.20;99.90;;;;;;5102863;28;20312;-81
2022/01/12 02:56:53;;;;;;;8.60;8.40;;;0.20;99.90;;;;;;5104075;28;20357;-82
2022/01/12 02:59:20;;;;;;;8.10;7.90;;;0.20;99.90;;;;;;5103335;28;20237;-81
2022/01/12 03:02:09;;;;;;;8.60;8.40;;;0.20;99.90;;;;;;5102258;28;20295;-81
2022/01/12 03:04:46;;;;;;;8.57;8.37;;;0.10;99.90;;;;;;5103016;28;20217;-82
2022/01/12 03:07:16;;;;;;;8.80;8.60;;;0.10;99.90;;;;;;5103278;28;20294;-82
2022/01/12 03:09:45;;;;;;;8.70;8.50;;;0.00;99.90;;;;;;5102671;28;20233;-81
2022/01/12 03:12:13;;;;;;;9.00;8.80;;;0.00;99.90;;;;;;5102207;28;20237;-82
2022/01/12 03:14:41;;;;;;;8.90;8.70;;;0.00;99.90;;;;;;5102391;28;20229;-81
2022/01/12 03:17:11;;;;;;;8.67;8.47;;;0.00;99.90;;;;;;5101472;28;20237;-81
2022/01/12 03:19:39;;;;;;;8.47;8.27;;;0.00;99.90;;;;;;5101631;28;20272;-81
2022/01/12 03:22:06;;;;;;;8.43;8.23;;;0.00;99.90;;;;;;5101270;28;20236;-80
2022/01/12 03:24:34;;;;;;;8.50;8.30;;;0.00;99.90;;;;;;5101792;28;20225;-80
2022/01/12 03:27:05;;;;;;;8.40;8.20;;;0.00;99.90;;;;;;5102659;28;20230;-81
2022/01/12 03:29:33;;;;;;;8.50;8.30;;;-0.10;99.90;;;;;;5101616;28;20256;-81
2022/01/12 03:32:02;;;;;;;8.50;8.30;;;0.00;99.90;;;;;;5101864;28;20251;-81
2022/01/12 03:34:33;;;;;;;8.43;8.23;;;-0.10;99.90;;;;;;5101182;28;20229;-80
2022/01/12 03:37:28;;;;;;;8.27;8.07;;;-0.20;99.90;;;;;;5101793;28;20243;-81
2022/01/12 03:39:56;;;;;;;8.13;7.93;;;-0.20;99.90;;;;;;5101242;28;20233;-81
2022/01/12 03:42:25;;;;;;;8.40;8.20;;;-0.20;99.90;;;;;;5100891;28;20263;-81
2022/01/12 03:44:52;;;;;;;8.17;7.97;;;-0.10;99.90;;;;;;5101505;28;20225;-81
2022/01/12 03:47:20;;;;;;;8.17;7.97;;;-0.10;99.90;;;;;;5101682;28;20237;-81
2022/01/12 03:49:48;;;;;;;8.40;8.20;;;-0.10;99.90;;;;;;5101638;28;20298;-81
2022/01/12 03:52:15;;;;;;;8.43;8.23;;;-0.10;99.90;;;;;;5101206;28;20233;-81
2022/01/12 03:54:43;;;;;;;8.43;8.23;;;-0.20;99.90;;;;;;5101005;28;20222;-81
2022/01/12 03:57:11;;;;;;;8.30;8.10;;;-0.30;99.90;;;;;;5101317;28;20236;-81
2022/01/12 03:59:40;;;;;;;8.33;8.13;;;-0.30;99.90;;;;;;5101365;28;20240;-81
2022/01/12 04:02:08;;;;;;;8.47;8.27;;;-0.30;99.90;;;;;;5101163;28;20245;-80
2022/01/12 04:04:52;;;;;;;8.33;8.13;;;-0.40;99.90;;;;;;5101554;28;20218;-80
2022/01/12 04:10:06;;;;;;;8.07;7.87;;;-0.30;99.90;;;;;;5103021;28;20241;-81
2022/01/12 04:12:34;;;;;;;8.10;7.90;;;-0.30;99.90;;;;;;5102612;28;20374;-81
2022/01/12 04:15:03;;;;;;;8.00;7.80;;;-0.30;99.90;;;;;;5102482;28;20225;-81
2022/01/12 04:17:30;;;;;;;8.00;7.80;;;-0.20;99.90;;;;;;5102189;28;20235;-81
2022/01/12 04:20:01;;;;;;;7.90;7.70;;;-0.20;99.90;;;;;;5101940;28;20236;-81
2022/01/12 04:25:14;;;;;;;8.30;8.10;;;-0.20;99.90;;;;;;5102385;28;20208;-81
2022/01/12 04:27:42;;;;;;;8.17;7.97;;;-0.30;99.90;;;;;;5101766;28;20244;-80
2022/01/12 04:30:12;;;;;;;8.30;8.10;;;-0.50;99.90;;;;;;5100932;28;20708;-82
2022/01/12 04:32:42;;;;;;;8.10;7.90;;;-0.60;99.90;;;;;;5104200;28;20224;-81
2022/01/12 04:35:13;;;;;;;8.30;8.10;;;-0.60;99.90;;;;;;5105247;28;20229;-81
2022/01/12 04:37:41;;;;;;;8.23;8.03;;;-0.70;99.90;;;;;;5105386;28;20236;-82
2022/01/12 04:40:10;;;;;;;8.40;8.20;;;-0.80;99.90;;;;;;5115201;27;20247;-81
2022/01/12 04:42:38;;;;;;;8.20;8.00;;;-0.70;99.90;;;;;;5122045;27;20233;-81
2022/01/12 04:45:19;;;;;;;8.23;8.03;;;-0.70;99.90;;;;;;5121683;28;20235;-82
2022/01/12 04:48:08;;;;;;;8.27;8.07;;;-0.70;99.90;;;;;;5103046;28;20270;-81
2022/01/12 04:50:37;;;;;;;8.20;8.00;;;-0.70;99.90;;;;;;5104064;28;20268;-81
2022/01/12 04:53:06;;;;;;;8.30;8.10;;;-0.80;99.90;;;;;;5105980;28;20226;-81
2022/01/12 04:55:34;;;;;;;8.23;8.03;;;-0.80;99.90;;;;;;5105962;28;20232;-82
2022/01/12 04:58:02;;;;;;;8.07;7.87;;;-0.80;99.90;;;;;;5105347;28;20244;-81
2022/01/12 05:00:30;;;;;;;8.23;8.03;;;-0.80;99.90;;;;;;5103532;28;20237;-81
2022/01/12 05:08:48;;;;;;;8.77;8.57;;;-1.00;99.90;;;;;;5104057;28;20248;-82
2022/01/12 05:14:03;;;;;;;8.13;7.93;;;-1.00;99.90;;;;;;5102465;28;20247;-81
2022/01/12 05:16:30;;;;;;;8.40;8.20;;;-0.90;99.90;;;;;;5102505;28;20230;-81
2022/01/12 05:19:00;;;;;;;8.57;8.37;;;-0.90;99.90;;;;;;5102833;28;20290;-81
2022/01/12 05:21:28;;;;;;;8.30;8.10;;;-0.90;99.90;;;;;;5102365;28;20331;-81
2022/01/12 05:23:57;;;;;;;8.30;8.10;;;-0.80;99.90;;;;;;5102901;28;20248;-82
2022/01/12 05:26:25;;;;;;;8.40;8.20;;;-0.80;99.90;;;;;;5103382;28;21017;-81
2022/01/12 05:28:52;;;;;;;8.37;8.17;;;-0.80;99.90;;;;;;5102874;28;20260;-82
2022/01/12 05:31:20;;;;;;;8.40;8.20;;;-0.80;99.90;;;;;;5102865;28;20236;-82
2022/01/12 05:33:48;;;;;;;8.50;8.30;;;-0.80;99.90;;;;;;5102559;28;20303;-81
2022/01/12 05:36:19;;;;;;;8.40;8.20;;;-0.80;99.90;;;;;;5102468;28;20327;-81
2022/01/12 05:38:48;;;;;;;8.30;8.10;;;-0.80;99.90;;;;;;5102716;28;20244;-82
2022/01/12 05:41:15;;;;;;;8.23;8.03;;;-0.80;99.90;;;;;;5102505;28;20244;-82
2022/01/12 05:43:45;;;;;;;8.70;8.50;;;-0.70;99.90;;;;;;5101722;28;20240;-81
2022/01/12 05:46:14;;;;;;;8.80;8.60;;;-0.80;99.90;;;;;;5103060;28;20256;-81
2022/01/12 05:51:31;;;;;;;8.57;8.37;;;-0.70;99.90;;;;;;5103151;28;20212;-81
2022/01/12 05:53:59;;;;;;;8.57;8.37;;;-0.70;99.90;;;;;;5103349;28;20232;-81
2022/01/12 05:56:27;;;;;;;8.40;8.20;;;-0.70;99.90;;;;;;5103067;28;20385;-82
2022/01/12 05:58:55;;;;;;;8.43;8.23;;;-0.70;99.90;;;;;;5103154;28;20292;-82
2022/01/12 06:01:23;;;;;;;9.00;8.80;;;-0.70;99.90;;;;;;5103404;28;20229;-82
2022/01/12 06:03:51;;;;;;;8.37;8.17;;;-0.70;99.90;;;;;;5113756;28;20222;-83
2022/01/12 06:06:19;;;;;;;8.40;8.20;;;-0.70;99.90;;;;;;5105847;28;20231;-81
2022/01/12 06:08:49;;;;;;;8.60;8.40;;;-0.70;99.90;;;;;;5104916;28;20245;-81
2022/01/12 06:11:16;;;;;;;8.80;8.60;;;-0.60;99.90;;;;;;5150410;22;20228;-76
2022/01/12 06:13:44;;;;;;;8.60;8.40;;;-0.60;99.90;;;;;;5105566;27;20275;-77
2022/01/12 06:16:11;;;;;;;8.50;8.30;;;-0.60;99.90;;;;;;5102095;28;20233;-77
2022/01/12 06:18:39;;;;;;;8.50;8.30;;;-0.50;99.90;;;;;;5110198;28;20286;-77
2022/01/12 06:21:06;;;;;;;8.30;8.10;;;-0.50;99.90;;;;;;5105316;28;20310;-78
2022/01/12 06:23:34;;;;;;;8.63;8.43;;;-0.40;99.90;;;;;;5097695;28;20261;-78
2022/01/12 06:26:05;;;;;;;8.40;8.20;;;-0.40;99.90;;;;;;5094262;28;20223;-77
2022/01/12 06:28:39;;;;;;;8.40;8.20;;;-0.30;99.90;;;;;;5102779;28;20287;-77
2022/01/12 06:31:13;;;;;;;8.30;8.10;;;-0.30;99.90;;;;;;5102262;28;20295;-77
2022/01/12 06:33:44;;;;;;;8.57;8.37;;;-0.40;99.90;;;;;;5097629;28;20221;-77
2022/01/12 06:36:13;;;;;;;8.43;8.23;;;-0.50;99.90;;;;;;5093726;28;20266;-77
2022/01/12 06:38:41;;;;;;;8.17;7.97;;;-0.60;99.90;;;;;;5102245;28;20259;-78
2022/01/12 06:41:11;;;;;;;8.60;8.40;;;-0.60;99.90;;;;;;5101435;28;20263;-79
2022/01/12 06:43:42;;;;;;;8.30;8.10;;;-0.80;99.90;;;;;;5101383;28;20246;-78
2022/01/12 06:46:09;;;;;;;8.60;8.40;;;-0.90;99.90;;;;;;5103879;28;20327;-78
2022/01/12 06:48:38;;;;;;;8.50;8.30;;;-0.90;99.90;;;;;;5115382;27;20251;-77
2022/01/12 06:51:08;;;;;;;9.27;8.97;;;-1.00;99.90;;;;;;5118668;27;20236;-78
2022/01/12 06:53:38;;;;;;;8.60;8.40;;;-1.00;99.90;;;;;;5105122;28;20233;-78
2022/01/12 06:56:08;;;;;;;8.60;8.40;;;-1.10;99.90;;;;;;5104046;28;20293;-79
2022/01/12 06:58:39;;;;;;;8.53;8.33;;;-1.10;99.90;;;;;;5103724;28;20233;-77
2022/01/12 07:01:07;;;;;;;8.60;8.40;;;-1.00;99.90;;;;;;5103852;28;20301;-79
2022/01/12 07:03:36;;;;;;;8.47;8.27;;;-1.00;99.90;;;;;;5102843;28;20298;-78
2022/01/12 07:06:05;;;;;;;8.50;8.30;;;-1.00;99.90;;;;;;5106031;28;20237;-77
2022/01/12 07:08:36;;;;;;;8.70;8.50;;;-1.00;99.90;;;;;;5093605;28;20233;-79
2022/01/12 07:11:04;;;;;;;8.50;8.30;;;-1.00;99.90;;;;;;5083359;28;20241;-79
2022/01/12 07:13:32;;;;;;;8.57;8.37;;;-1.00;99.90;;;;;;5083083;28;20243;-79
2022/01/12 07:16:02;;;;;;;8.60;8.40;;;-1.00;99.90;;;;;;5082578;28;20226;-79
2022/01/12 07:18:32;;;;;;;8.60;8.40;;;-1.00;99.90;;;;;;5082297;28;20267;-79
2022/01/12 07:21:00;;;;;;;8.00;7.80;;;-1.00;99.90;;;;;;5081459;28;20291;-79
2022/01/12 07:23:31;;;;;;;8.30;8.10;;;-1.00;99.90;;;;;;5081734;28;20236;-79
2022/01/12 07:26:00;;;;;;;8.37;8.17;;;-1.00;99.90;;;;;;5081754;28;20233;-79
2022/01/12 07:28:28;;;;;;;8.30;8.10;;;-1.00;99.90;;;;;;5081907;28;20240;-78
2022/01/12 07:30:57;;;;;;;8.60;8.40;;;-1.00;99.90;;;;;;5083969;28;20271;-78
2022/01/12 07:33:27;;;;;;;8.37;8.17;;;-1.00;99.90;;;;;;5087873;28;20225;-79
2022/01/12 07:35:57;;;;;;;8.03;7.83;;;-1.00;99.90;;;;;;5087297;28;20278;-78
2022/01/12 07:41:06;;;;;;;8.50;8.30;;;-1.00;99.90;;;;;;5082561;28;20232;-79
2022/01/12 07:43:37;;;;;;;8.10;7.90;;;-1.00;99.90;;;;;;5081194;28;20245;-79
2022/01/12 07:46:06;;;;;;;8.20;8.00;;;-1.00;99.90;;;;;;5081537;28;20234;-78
2022/01/12 07:48:37;;;;;;;8.50;8.30;;;-1.00;99.90;;;;;;5081424;28;20233;-79
2022/01/12 07:51:05;;;;;;;8.57;8.37;;;-1.00;99.90;;;;;;5082135;28;20238;-80
2022/01/12 07:53:34;;;;;;;8.60;8.40;;;-1.00;99.90;;;;;;5081623;28;20240;-79
2022/01/12 07:56:04;;;;;;;8.30;8.10;;;-0.90;99.90;;;;;;5086985;28;20213;-79
2022/01/12 07:58:34;;;;;;;8.70;8.50;;;-0.90;99.90;;;;;;5080033;28;20704;-79
2022/01/12 08:01:03;;;;;;;8.80;8.60;;;-0.90;99.90;;;;;;5079557;28;20236;-79
2022/01/12 08:03:32;;;;;;;8.47;8.27;;;-0.90;99.90;;;;;;5079247;28;20234;-79
2022/01/12 08:06:11;;;;;;;8.77;8.57;;;-0.90;99.90;;;;;;5080101;28;20246;-79
2022/01/12 08:08:41;;;;;;;9.30;9.00;;;-0.90;99.90;;;;;;5079897;28;20289;-79
2022/01/12 08:11:10;;;;;;;9.10;8.83;;;-0.90;99.90;;;;;;5079910;28;20245;-81
2022/01/12 08:13:39;;;;;;;8.97;8.77;;;-0.90;99.90;;;;;;5080959;28;20296;-79
2022/01/12 08:16:08;;;;;;;8.97;8.77;;;-0.90;99.90;;;;;;5080334;28;20225;-80
2022/01/12 08:18:38;;;;;;;9.17;8.87;;;-1.00;99.90;;;;;;5081047;28;20230;-80
2022/01/12 08:21:17;;;;;;;8.77;8.57;;;-1.00;99.90;;;;;;5080852;28;20256;-80
2022/01/12 08:23:46;;;;;;;8.67;8.47;;;-1.00;99.90;;;;;;5080263;28;20238;-80
2022/01/12 08:26:15;;;;;;;8.53;8.33;;;-0.90;99.90;;;;;;5081270;28;20232;-80
2022/01/12 08:28:44;;;;;;;8.60;8.40;;;-1.00;99.90;;;;;;5081336;28;20240;-82
2022/01/12 08:31:14;;;;;;;8.57;8.37;;;-1.00;99.90;;;;;;5087753;28;20287;-83
2022/01/12 08:33:44;;;;;;;8.80;8.60;;;-1.00;99.90;;;;;;5089710;28;20319;-82
2022/01/12 08:36:22;;;;;;;8.60;8.40;;;-1.00;99.90;;;;;;5084662;28;20236;-83
2022/01/12 08:38:51;;;;;;;8.80;8.60;;;-1.00;99.90;;;;;;5084678;28;20237;-83
2022/01/12 08:41:20;;;;;;;8.90;8.70;;;-1.00;99.90;;;;;;5084110;28;20238;-83
2022/01/12 08:43:50;;;;;;;8.90;8.70;;;-1.00;99.90;;;;;;5084598;28;20260;-83
2022/01/12 08:46:20;;;;;;;8.80;8.60;;;-1.00;99.90;;;;;;5084972;28;20243;-83
2022/01/12 08:48:49;;;;;;;9.30;9.00;;;-1.00;99.90;;;;;;5085848;28;20229;-83
2022/01/12 08:51:21;;;;;;;8.80;8.60;;;-0.90;99.90;;;;;;5084245;28;20237;-83
2022/01/12 08:53:49;;;;;;;8.67;8.47;;;-0.90;99.90;;;;;;5084725;28;20323;-83
2022/01/12 08:56:19;;;;;;;8.47;8.27;;;-0.80;99.90;;;;;;5085105;28;20234;-84
2022/01/12 08:58:47;;;;;;;8.33;8.13;;;-0.80;99.90;;;;;;5084203;28;20233;-85
2022/01/12 09:01:16;;;;;;;8.50;8.30;;;-0.80;99.90;;;;;;5092810;28;20247;-83
2022/01/12 09:03:49;;;;;;;8.43;8.23;;;-0.70;99.90;;;;;;5073675;28;20260;-84
2022/01/12 09:06:18;;;;;;;8.60;8.40;;;-0.70;99.90;;;;;;5067686;28;20215;-84
2022/01/12 09:08:46;;;;;;;8.70;8.50;;;-0.70;99.90;;;;;;5064747;28;20239;-83
2022/01/12 09:11:15;;;;;;;8.27;8.07;;;-0.60;99.90;;;;;;5063001;28;20237;-83
2022/01/12 09:13:43;;;;;;;8.40;8.20;;;-0.60;99.90;;;;;;5062866;28;20234;-83
2022/01/12 09:16:13;;;;;;;8.40;8.20;;;-0.60;99.90;;;;;;5063143;28;20321;-84
2022/01/12 09:18:43;;;;;;;8.60;8.40;;;-0.60;99.90;;;;;;5066450;28;20238;-83
2022/01/12 09:21:11;;;;;;;8.40;8.20;;;-0.60;99.90;;;;;;5067467;28;20333;-83
2022/01/12 09:26:30;;;;;;;8.30;8.10;;;-0.50;99.90;;;;;;5068323;28;20218;-83
2022/01/12 09:28:59;;;;;;;8.33;8.13;;;-0.50;99.90;;;;;;5071902;28;20299;-83
2022/01/12 09:31:29;;;;;;;8.17;7.97;;;-0.50;99.90;;;;;;5065595;28;20328;-83
2022/01/12 09:33:58;;;;;;;8.23;8.03;;;-0.50;99.90;;;;;;5064955;28;20235;-83
2022/01/12 09:36:28;;;;;;;8.50;8.30;;;-0.50;99.90;;;;;;5065311;28;20226;-83
2022/01/12 09:39:06;;;;;;;8.30;8.10;;;-0.40;99.90;;;;;;5065635;28;20230;-83
2022/01/12 09:41:37;;;;;;;10.70;10.40;;;-0.30;99.90;;;;;;5064432;28;20977;-88
2022/01/12 09:44:15;;;;;;;10.87;10.57;;;-0.30;99.90;;;;;;5073563;28;20262;-87
2022/01/12 09:46:43;;;;;;;9.17;8.87;;;-0.10;99.90;;;;;;5075627;28;20211;-82
2022/01/12 09:49:13;;;;;;;8.90;8.70;;;0.10;99.90;;;;;;5075395;28;20277;-83
2022/01/12 09:51:41;;;;;;;8.93;8.73;;;0.20;99.90;;;;;;5098150;28;20285;-82
2022/01/12 09:54:24;;;;;;;8.90;8.70;;;0.30;99.90;;;;;;5084326;28;20226;-86
2022/01/12 09:57:01;;;;;;;8.93;8.73;;;0.40;99.90;;;;;;5084627;28;20233;-83
2022/01/12 09:59:29;;;;;;;8.60;8.40;;;0.40;99.90;;;;;;5085175;28;20377;-83
2022/01/12 10:01:57;;;;;;;8.07;7.87;;;0.40;99.90;;;;;;5085014;28;20257;-84
2022/01/12 10:04:27;;;;;;;8.20;8.00;;;0.40;99.90;;;;;;5085306;28;20261;-84
2022/01/12 10:06:59;;;;;;;8.27;8.07;;;0.50;99.90;;;;;;5084629;28;20202;-84
2022/01/12 10:09:43;;;;;;;8.37;8.17;;;0.60;99.90;;;;;;5085460;28;20234;-84
2022/01/12 10:12:14;;;;;;;8.57;8.37;;;0.60;99.90;;;;;;5092242;28;20329;-85
2022/01/12 10:14:50;;;;;;;8.47;8.27;;;0.70;99.90;;;;;;5100612;28;20241;-85
2022/01/12 10:17:37;;;;;;;8.53;8.33;;;0.70;99.90;;;;;;5086013;28;20280;-87
2022/01/12 10:20:17;;;;;;;8.30;8.10;;;0.80;99.90;;;;;;5086931;28;20234;-86
2022/01/12 10:25:51;;;;;;;8.30;8.10;;;0.80;99.90;;;;;;5092553;28;20238;-86
2022/01/12 10:28:22;;;;;;;8.60;8.40;;;0.90;99.90;;;;;;5084019;28;20313;-86
2022/01/12 10:30:58;;;;;;;8.50;8.30;;;0.90;99.90;;;;;;5085979;28;20241;-85
2022/01/12 10:33:28;;;;;;;8.37;8.17;;;1.00;99.90;;;;;;5086269;28;20229;-86
2022/01/12 10:36:00;;;;;;;8.60;8.40;;;1.00;99.90;;;;;;5084546;28;20211;-86
2022/01/12 10:38:29;;;;;;;8.77;8.57;;;1.10;99.90;;;;;;5082052;28;20263;-87
2022/01/12 10:41:06;;;;;;;8.73;8.53;;;1.10;99.90;;;;;;5081115;28;20215;-84
2022/01/12 10:43:36;;;;;;;8.47;8.27;;;1.10;99.90;;;;;;5069550;28;20317;-85
2022/01/12 10:46:06;;;;;;;8.50;8.30;;;1.10;99.90;;;;;;5063630;28;20230;-86
2022/01/12 10:48:43;;;;;;;8.80;8.60;;;1.10;99.90;;;;;;5065272;28;20241;-85
2022/01/12 10:51:12;;;;;;;8.60;8.40;;;1.10;99.90;;;;;;5066555;28;20227;-85
2022/01/12 10:53:40;;;;;;;8.57;8.37;;;1.00;99.90;;;;;;5066919;28;20227;-85
2022/01/12 10:56:18;;;;;;;8.50;8.30;;;1.00;99.90;;;;;;5068239;28;20262;-85
2022/01/12 10:58:49;;;;;;;8.60;8.40;;;1.10;99.90;;;;;;5069059;28;20231;-85
2022/01/12 11:01:19;;;;;;;8.50;8.30;;;1.30;99.90;;;;;;5068682;28;20262;-85
2022/01/12 11:03:48;;;;;;;8.50;8.30;;;1.30;99.90;;;;;;5087929;28;20218;-86
2022/01/12 11:06:17;;;;;;;8.70;8.50;;;1.40;99.90;;;;;;5101623;28;20252;-85
2022/01/12 11:08:48;;;;;;;8.40;8.20;;;1.50;99.90;;;;;;5098512;28;20233;-85
2022/01/12 11:11:26;;;;;;;8.30;8.10;;;1.40;99.90;;;;;;5091263;28;20276;-86
2022/01/12 11:13:56;;;;;;;8.40;8.20;;;1.60;99.90;;;;;;5088758;28;20240;-86
2022/01/12 11:16:26;;;;;;;8.67;8.47;;;1.70;99.90;;;;;;5088976;28;20237;-85
2022/01/12 11:18:55;;;;;;;8.63;8.43;;;2.00;99.90;;;;;;5085862;28;20238;-86
2022/01/12 11:21:32;;;;;;;8.60;8.40;;;2.20;99.90;;;;;;5085358;28;20237;-85
2022/01/12 11:24:05;;;;;;;8.50;8.30;;;2.40;99.90;;;;;;5084318;28;20265;-86
2022/01/12 11:26:40;;;;;;;8.53;8.33;;;2.30;99.90;;;;;;5084709;28;20308;-86
2022/01/12 11:29:09;;;;;;;8.63;8.43;;;2.30;99.90;;;;;;5085516;28;20268;-85
2022/01/12 11:31:40;;;;;;;8.57;8.37;;;2.40;99.90;;;;;;5085369;28;20241;-84
2022/01/12 11:34:18;;;;;;;8.50;8.30;;;2.30;99.90;;;;;;5085329;28;20218;-85
2022/01/12 11:36:46;;;;;;;8.23;8.03;;;2.20;99.90;;;;;;5084664;28;20230;-85
2022/01/12 11:39:18;;;;;;;8.70;8.50;;;2.10;99.90;;;;;;5083431;28;20222;-85
2022/01/12 11:41:54;;;;;;;8.43;8.23;;;1.90;99.90;;;;;;5083347;28;20238;-86
2022/01/12 11:44:24;;;;;;;8.33;8.13;;;2.00;99.90;;;;;;5083875;28;20230;-85
2022/01/12 11:46:56;;;;;;;8.77;8.57;;;1.80;99.90;;;;;;5084948;28;20233;-86
2022/01/12 11:49:32;;;;;;;8.50;8.30;;;1.70;99.90;;;;;;5085713;28;20641;-85
2022/01/12 11:52:04;;;;;;;8.30;8.10;;;1.70;99.90;;;;;;5085229;28;20230;-85
2022/01/12 11:54:43;;;;;;;8.70;8.50;;;1.80;99.90;;;;;;5083999;28;20230;-85
2022/01/12 11:57:18;;;;;;;8.87;8.67;;;1.80;99.90;;;;;;5084623;28;20214;-85
2022/01/12 11:59:57;;;;;;;8.90;8.70;;;1.70;99.90;;;;;;5084555;28;20226;-84
2022/01/12 12:02:34;;;;;;;9.27;8.97;;;1.90;99.90;;;;;;5085761;28;20276;-85
2022/01/12 12:05:13;;;;;;;8.90;8.70;;;2.10;99.90;;;;;;5086355;28;20238;-85
2022/01/12 12:07:50;;;;;;;9.13;8.83;;;2.40;99.90;;;;;;5094641;28;20287;-85
2022/01/12 12:10:22;;;;;;;8.80;8.60;;;2.70;99.90;;;;;;5090345;28;20222;-86
2022/01/12 12:12:56;;;;;;;9.00;8.80;;;3.00;99.90;;;;;;5132680;22;20225;-85
2022/01/12 12:15:25;;;;;;;9.00;8.80;;;3.30;99.90;;;;;;5120013;27;20231;-85
2022/01/12 12:17:57;;;;;;;9.20;8.90;;;3.30;99.90;;;;;;5119463;27;20235;-84
2022/01/12 12:20:26;;;;;;;8.90;8.70;;;3.50;99.90;;;;;;5121241;27;20263;-83
2022/01/12 12:22:54;;;;;;;9.07;8.83;;;3.80;99.90;;;;;;5110532;28;20214;-85
2022/01/12 12:25:25;;;;;;;8.77;8.57;;;3.80;99.90;;;;;;5115546;28;20240;-83
2022/01/12 12:27:56;;;;;;;9.00;8.80;;;4.00;99.90;;;;;;5116469;28;20233;-84
2022/01/12 12:30:26;;;;;;;8.77;8.57;;;4.10;99.90;;;;;;5116506;28;20263;-85
2022/01/12 12:32:57;;;;;;;8.57;8.37;;;4.10;99.90;;;;;;5109002;28;20279;-85
2022/01/12 12:35:28;;;;;;;8.60;8.40;;;4.20;99.90;;;;;;5101258;28;20240;-86
2022/01/12 12:38:00;;;;;;;9.20;8.90;;;4.30;99.90;;;;;;5086280;28;20230;-86
2022/01/12 12:40:30;;;;;;;9.20;8.90;;;4.40;99.90;;;;;;5078599;28;20242;-85
2022/01/12 12:43:07;;;;;;;8.97;8.77;;;4.40;99.90;;;;;;5079935;28;20234;-86
2022/01/12 12:45:44;;;;;;;8.70;8.50;;;4.50;99.90;;;;;;5085453;28;20229;-85
2022/01/12 12:48:15;;;;;;;8.67;8.47;;;4.40;99.90;;;;;;5108223;28;20236;-85
2022/01/12 12:50:44;;;;;;;8.70;8.50;;;4.20;99.90;;;;;;5107593;28;20268;-86
2022/01/12 12:53:14;;;;;;;8.80;8.60;;;4.20;99.90;;;;;;5106859;28;20259;-85
2022/01/12 12:55:43;;;;;;;9.00;8.80;;;4.30;99.90;;;;;;5106628;28;20225;-84
2022/01/12 12:58:16;;;;;;;9.20;8.90;;;4.50;99.90;;;;;;5107606;28;20253;-84
2022/01/12 13:00:44;;;;;;;8.97;8.77;;;4.80;99.90;;;;;;5102729;28;20221;-82
2022/01/12 13:03:12;;;;;;;9.50;9.20;;;5.00;99.90;;;;;;5100301;28;20233;-79
2022/01/12 13:05:42;;;;;;;9.33;9.03;;;5.30;99.90;;;;;;5105035;28;20291;-83
2022/01/12 13:08:11;;;;;;;8.97;8.77;;;5.50;99.90;;;;;;5103532;28;20233;-83
2022/01/12 13:10:40;;;;;;;8.90;8.70;;;5.70;99.90;;;;;;5104189;28;20225;-83
2022/01/12 13:13:12;;;;;;;8.80;8.60;;;5.90;99.90;;;;;;5103407;28;20237;-82
2022/01/12 13:15:42;;;;;;;8.77;8.57;;;5.80;99.90;;;;;;5100530;28;20267;-81
2022/01/12 13:18:13;;;;;;;8.60;8.40;;;5.90;99.90;;;;;;5098859;28;20225;-83
2022/01/12 13:23:31;;;;;;;9.17;8.87;;;5.50;99.90;;;;;;5101865;28;20225;-81
2022/01/12 13:26:04;;;;;;;8.87;8.67;;;5.40;99.90;;;;;;5101353;28;20256;-81
2022/01/12 13:28:34;;;;;;;8.60;8.40;;;5.20;99.90;;;;;;5102668;28;20231;-81
2022/01/12 13:31:05;;;;;;;8.53;8.33;;;4.80;99.90;;;;;;5103567;28;20222;-81
2022/01/12 13:33:36;;;;;;;9.00;8.80;;;4.70;99.90;;;;;;5103939;28;20363;-81
2022/01/12 13:36:13;;;;;;;8.97;8.77;;;4.80;99.90;;;;;;5112625;28;20263;-80
2022/01/12 13:38:47;;;;;;;9.60;9.30;;;5.20;99.90;;;;;;5119522;28;20221;-80
2022/01/12 13:41:18;;;;;;;9.50;9.20;;;5.60;99.90;;;;;;5121236;28;20228;-81
2022/01/12 13:43:54;;;;;;;9.57;9.27;;;6.10;99.90;;;;;;5121564;27;20233;-79
2022/01/12 13:46:30;;;;;;;9.70;9.40;;;6.50;99.90;;;;;;5122522;27;20212;-79
2022/01/12 13:49:10;;;;;;;9.47;9.17;;;7.00;99.90;;;;;;5120618;27;20216;-80
2022/01/12 13:51:38;;;;;;;9.50;9.20;;;7.10;99.90;;;;;;5122187;27;20213;-78
2022/01/12 13:54:09;;;;;;;9.60;9.30;;;6.90;99.90;;;;;;5120257;27;20272;-82
2022/01/12 13:56:39;;;;;;;9.80;9.50;;;6.60;99.90;;;;;;5112326;28;20286;-82
2022/01/12 13:59:08;;;;;;;9.73;9.43;;;6.60;99.90;;;;;;5113425;28;20225;-80
2022/01/12 14:01:38;;;;;;;9.33;9.03;;;6.40;99.90;;;;;;5116169;28;20224;-82
2022/01/12 14:04:13;;;;;;;9.10;8.80;;;6.20;99.90;;;;;;5116376;28;20233;-82
2022/01/12 14:06:46;;;;;;;8.87;8.67;;;6.10;99.90;;;;;;5104533;28;20225;-78
2022/01/12 14:09:23;;;;;;;8.77;8.57;;;5.80;99.90;;;;;;5100321;28;20233;-82
2022/01/12 14:11:51;;;;;;;8.60;8.40;;;5.70;99.90;;;;;;5099088;28;20233;-80
2022/01/12 14:14:21;;;;;;;8.90;8.70;;;5.40;99.90;;;;;;5101475;28;20225;-80
2022/01/12 14:16:50;;;;;;;8.50;8.30;;;5.20;99.90;;;;;;5101609;28;20260;-80
2022/01/12 14:19:18;;;;;;;8.70;8.50;;;5.00;99.90;;;;;;5097702;28;20240;-80
2022/01/12 14:21:57;;;;;;;8.70;8.50;;;4.70;99.90;;;;;;5100269;28;20229;-80